SIA1568 WARR-WSSS
Flight info
| Callsign | SIA1568 |
|---|---|
| Flight time | 1h 53m |
| Altitude | 40000 |
| Route | RAMPY2F RAMPY M635 SURGA T23 UGEBO UGEBO1A |
| Aircraft | A359/H-SDE2E3GHIJ3J4J5LM1ORWXY/LB1D1 |
Departure
| Time | 2026-05-01 09:20 |
|---|---|
| Airport | Juanda International Airport (WARR) |
Arrival
| Time | 2026-05-01 11:13 |
|---|---|
| Airport | Singapore Changi Airport (WSSS) |
| Time | Latitude | Longitude | Altitude | Speed | Heading |
|---|---|---|---|---|---|
| 2026-05-01 08:58 | -7.38329 | 112.77893 | 23 ft | 0 kts | 190° |
| 2026-05-01 09:09 | -7.38328 | 112.77893 | 21 ft | 2 kts | 190° |
| 2026-05-01 09:10 | -7.38310 | 112.77896 | 24 ft | 3 kts | 190° |
| 2026-05-01 09:10 | -7.38292 | 112.77899 | 25 ft | 3 kts | 190° |
| 2026-05-01 09:10 | -7.38273 | 112.77901 | 25 ft | 3 kts | 162° |
| 2026-05-01 09:10 | -7.38256 | 112.77891 | 26 ft | 3 kts | 121° |
| 2026-05-01 09:11 | -7.38250 | 112.77875 | 26 ft | 0 kts | 96° |
| 2026-05-01 09:13 | -7.38252 | 112.77893 | 26 ft | 7 kts | 98° |
| 2026-05-01 09:13 | -7.38236 | 112.77930 | 25 ft | 6 kts | 47° |
| 2026-05-01 09:14 | -7.38199 | 112.77945 | 25 ft | 7 kts | 16° |
| 2026-05-01 09:14 | -7.38135 | 112.77958 | 25 ft | 14 kts | 10° |
| 2026-05-01 09:14 | -7.38066 | 112.78012 | 25 ft | 9 kts | 83° |
| 2026-05-01 09:14 | -7.38076 | 112.78075 | 24 ft | 11 kts | 99° |
| 2026-05-01 09:15 | -7.38092 | 112.78173 | 21 ft | 15 kts | 99° |
| 2026-05-01 09:15 | -7.38110 | 112.78287 | 24 ft | 18 kts | 99° |
| 2026-05-01 09:15 | -7.38131 | 112.78416 | 23 ft | 20 kts | 99° |
| 2026-05-01 09:15 | -7.38154 | 112.78556 | 22 ft | 21 kts | 99° |
| 2026-05-01 09:16 | -7.38179 | 112.78706 | 24 ft | 20 kts | 99° |
| 2026-05-01 09:16 | -7.38202 | 112.78851 | 24 ft | 22 kts | 99° |
| 2026-05-01 09:16 | -7.38226 | 112.79006 | 23 ft | 23 kts | 99° |
| 2026-05-01 09:17 | -7.38275 | 112.79307 | 22 ft | 23 kts | 99° |
| 2026-05-01 09:17 | -7.38301 | 112.79469 | 23 ft | 24 kts | 99° |
| 2026-05-01 09:17 | -7.38359 | 112.79825 | 22 ft | 27 kts | 99° |
| 2026-05-01 09:18 | -7.38380 | 112.79960 | 21 ft | 15 kts | 99° |
| 2026-05-01 09:18 | -7.38318 | 112.80050 | 24 ft | 6 kts | 353° |
| 2026-05-01 09:19 | -7.38183 | 112.79947 | 23 ft | 19 kts | 282° |
| 2026-05-01 09:19 | -7.38172 | 112.79882 | 19 ft | 0 kts | 279° |
| 2026-05-01 09:19 | -7.38147 | 112.79724 | 22 ft | 58 kts | 279° |
| 2026-05-01 09:20 | -7.37883 | 112.78065 | 126 ft | 166 kts | 278° |
| 2026-05-01 09:20 | -7.37308 | 112.75820 | 1406 ft | 172 kts | 286° |
| 2026-05-01 09:21 | -7.36889 | 112.73226 | 2212 ft | 195 kts | 280° |
| 2026-05-01 09:21 | -7.36719 | 112.72307 | 2448 ft | 201 kts | 281° |
| 2026-05-01 09:21 | -7.35722 | 112.69485 | 2946 ft | 234 kts | 307° |
| 2026-05-01 09:22 | -7.32578 | 112.68499 | 3402 ft | 265 kts | 19° |
| 2026-05-01 09:22 | -7.30292 | 112.71212 | 4437 ft | 266 kts | 73° |
| 2026-05-01 09:23 | -7.29679 | 112.72972 | 4963 ft | 271 kts | 71° |
| 2026-05-01 09:23 | -7.28455 | 112.75811 | 5891 ft | 275 kts | 65° |
| 2026-05-01 09:24 | -7.27034 | 112.78272 | 6702 ft | 279 kts | 58° |
| 2026-05-01 09:24 | -7.25860 | 112.79841 | 7216 ft | 283 kts | 50° |
| 2026-05-01 09:24 | -7.22677 | 112.82228 | 8314 ft | 289 kts | 32° |
| 2026-05-01 09:25 | -7.19147 | 112.84196 | 9448 ft | 291 kts | 30° |
| 2026-05-01 09:25 | -7.15542 | 112.86146 | 10324 ft | 302 kts | 30° |
| 2026-05-01 09:26 | -7.13655 | 112.87162 | 10546 ft | 314 kts | 29° |
| 2026-05-01 09:26 | -7.09652 | 112.89312 | 10996 ft | 337 kts | 29° |
| 2026-05-01 09:26 | -7.07549 | 112.90440 | 11175 ft | 348 kts | 29° |
| 2026-05-01 09:27 | -7.03169 | 112.92788 | 11685 ft | 363 kts | 29° |
| 2026-05-01 09:27 | -7.00936 | 112.93984 | 12072 ft | 365 kts | 29° |
| 2026-05-01 09:27 | -6.98683 | 112.95192 | 12452 ft | 368 kts | 29° |
| 2026-05-01 09:28 | -6.96417 | 112.96406 | 12827 ft | 371 kts | 29° |
| 2026-05-01 09:28 | -6.94133 | 112.97630 | 13197 ft | 373 kts | 29° |
| 2026-05-01 09:28 | -6.91835 | 112.98862 | 13565 ft | 375 kts | 29° |
| 2026-05-01 09:28 | -6.89521 | 113.00101 | 13892 ft | 378 kts | 29° |
| 2026-05-01 09:29 | -6.84868 | 113.02594 | 14583 ft | 380 kts | 29° |
| 2026-05-01 09:29 | -6.82528 | 113.03847 | 14933 ft | 382 kts | 29° |
| 2026-05-01 09:30 | -6.77817 | 113.06371 | 15613 ft | 385 kts | 29° |
| 2026-05-01 09:30 | -6.75448 | 113.07639 | 15949 ft | 387 kts | 29° |
| 2026-05-01 09:30 | -6.70676 | 113.10189 | 16628 ft | 390 kts | 28° |
| 2026-05-01 09:31 | -6.68160 | 113.11215 | 16959 ft | 393 kts | 17° |
| 2026-05-01 09:31 | -6.65452 | 113.11637 | 17264 ft | 397 kts | 2° |
| 2026-05-01 09:31 | -6.60214 | 113.09943 | 17896 ft | 406 kts | 327° |
| 2026-05-01 09:32 | -6.57979 | 113.08200 | 18237 ft | 408 kts | 320° |
| 2026-05-01 09:32 | -6.53850 | 113.04249 | 18763 ft | 412 kts | 316° |
| 2026-05-01 09:32 | -6.51816 | 113.02196 | 19021 ft | 415 kts | 316° |
| 2026-05-01 09:33 | -6.49764 | 113.00149 | 19291 ft | 416 kts | 316° |
| 2026-05-01 09:33 | -6.47688 | 112.98114 | 19564 ft | 418 kts | 317° |
| 2026-05-01 09:33 | -6.43465 | 112.94070 | 20076 ft | 421 kts | 317° |
| 2026-05-01 09:34 | -6.41326 | 112.92046 | 20332 ft | 423 kts | 318° |
| 2026-05-01 09:34 | -6.39178 | 112.90018 | 20600 ft | 425 kts | 318° |
| 2026-05-01 09:34 | -6.34851 | 112.85937 | 21091 ft | 428 kts | 318° |
| 2026-05-01 09:35 | -6.32679 | 112.83886 | 21330 ft | 430 kts | 318° |
| 2026-05-01 09:35 | -6.28306 | 112.79756 | 21810 ft | 433 kts | 318° |
| 2026-05-01 09:35 | -6.26105 | 112.77675 | 22043 ft | 435 kts | 318° |
| 2026-05-01 09:36 | -6.23900 | 112.75592 | 22311 ft | 436 kts | 318° |
| 2026-05-01 09:36 | -6.21686 | 112.73500 | 22557 ft | 437 kts | 318° |
| 2026-05-01 09:36 | -6.19468 | 112.71404 | 22776 ft | 439 kts | 318° |
| 2026-05-01 09:36 | -6.17235 | 112.69295 | 22997 ft | 441 kts | 318° |
| 2026-05-01 09:37 | -6.14999 | 112.67183 | 23217 ft | 442 kts | 318° |
| 2026-05-01 09:37 | -6.10500 | 112.62935 | 23614 ft | 445 kts | 318° |
| 2026-05-01 09:37 | -6.08238 | 112.60799 | 23793 ft | 447 kts | 318° |
| 2026-05-01 09:38 | -6.03696 | 112.56511 | 24164 ft | 449 kts | 318° |
| 2026-05-01 09:38 | -6.01417 | 112.54361 | 24363 ft | 450 kts | 318° |
| 2026-05-01 09:38 | -5.99131 | 112.52204 | 24534 ft | 451 kts | 318° |
| 2026-05-01 09:39 | -5.94543 | 112.47876 | 24893 ft | 454 kts | 318° |
| 2026-05-01 09:39 | -5.92237 | 112.45700 | 25073 ft | 455 kts | 318° |
| 2026-05-01 09:39 | -5.89930 | 112.43524 | 25253 ft | 456 kts | 318° |
| 2026-05-01 09:40 | -5.87610 | 112.41336 | 25439 ft | 457 kts | 318° |
| 2026-05-01 09:40 | -5.82966 | 112.36957 | 25802 ft | 460 kts | 318° |
| 2026-05-01 09:40 | -5.80629 | 112.34754 | 25976 ft | 461 kts | 318° |
| 2026-05-01 09:41 | -5.78288 | 112.32548 | 26164 ft | 462 kts | 318° |
| 2026-05-01 09:41 | -5.73591 | 112.28121 | 26547 ft | 465 kts | 318° |
| 2026-05-01 09:41 | -5.71230 | 112.25897 | 26713 ft | 466 kts | 317° |
| 2026-05-01 09:42 | -5.68865 | 112.23668 | 26911 ft | 467 kts | 317° |
| 2026-05-01 09:42 | -5.66491 | 112.21432 | 27094 ft | 468 kts | 317° |
| 2026-05-01 09:42 | -5.61757 | 112.16973 | 27475 ft | 471 kts | 317° |
| 2026-05-01 09:43 | -5.56965 | 112.12460 | 27842 ft | 474 kts | 317° |
| 2026-05-01 09:43 | -5.54556 | 112.10193 | 28047 ft | 475 kts | 317° |
| 2026-05-01 09:43 | -5.52141 | 112.07919 | 28253 ft | 476 kts | 317° |
| 2026-05-01 09:44 | -5.47293 | 112.03357 | 28621 ft | 479 kts | 317° |
| 2026-05-01 09:44 | -5.44856 | 112.01063 | 28794 ft | 481 kts | 317° |
| 2026-05-01 09:44 | -5.42410 | 111.98762 | 28991 ft | 482 kts | 317° |
| 2026-05-01 09:45 | -5.39962 | 111.96458 | 29161 ft | 484 kts | 317° |
| 2026-05-01 09:45 | -5.35037 | 111.91825 | 29556 ft | 486 kts | 317° |
| 2026-05-01 09:45 | -5.32568 | 111.89503 | 29740 ft | 488 kts | 317° |
| 2026-05-01 09:46 | -5.30091 | 111.87174 | 29937 ft | 489 kts | 317° |
| 2026-05-01 09:46 | -5.27599 | 111.84831 | 30062 ft | 492 kts | 317° |
| 2026-05-01 09:46 | -5.25096 | 111.82478 | 30208 ft | 494 kts | 317° |
| 2026-05-01 09:46 | -5.22592 | 111.80124 | 30421 ft | 494 kts | 317° |
| 2026-05-01 09:47 | -5.20076 | 111.77759 | 30645 ft | 494 kts | 317° |
| 2026-05-01 09:47 | -5.17568 | 111.75402 | 30858 ft | 494 kts | 317° |
| 2026-05-01 09:47 | -5.15060 | 111.73045 | 31067 ft | 495 kts | 317° |
| 2026-05-01 09:47 | -5.12578 | 111.70712 | 31248 ft | 496 kts | 317° |
| 2026-05-01 09:48 | -5.10053 | 111.68341 | 31411 ft | 498 kts | 317° |
| 2026-05-01 09:48 | -5.07518 | 111.65959 | 31591 ft | 499 kts | 317° |
| 2026-05-01 09:48 | -5.04980 | 111.63575 | 31748 ft | 500 kts | 317° |
| 2026-05-01 09:48 | -5.02437 | 111.61187 | 31936 ft | 501 kts | 317° |
| 2026-05-01 09:49 | -4.99894 | 111.58798 | 32115 ft | 502 kts | 317° |
| 2026-05-01 09:49 | -4.97344 | 111.56404 | 32274 ft | 503 kts | 317° |
| 2026-05-01 09:49 | -4.94787 | 111.54004 | 32422 ft | 504 kts | 317° |
| 2026-05-01 09:49 | -4.92216 | 111.51591 | 32492 ft | 507 kts | 317° |
| 2026-05-01 09:50 | -4.89637 | 111.49169 | 32664 ft | 508 kts | 317° |
| 2026-05-01 09:50 | -4.87055 | 111.46746 | 32787 ft | 510 kts | 317° |
| 2026-05-01 09:50 | -4.84466 | 111.44316 | 32968 ft | 510 kts | 317° |
| 2026-05-01 09:50 | -4.81876 | 111.41886 | 33119 ft | 511 kts | 317° |
| 2026-05-01 09:51 | -4.79285 | 111.39454 | 33296 ft | 511 kts | 317° |
| 2026-05-01 09:51 | -4.76687 | 111.37017 | 33448 ft | 512 kts | 317° |
| 2026-05-01 09:51 | -4.74083 | 111.34574 | 33592 ft | 513 kts | 317° |
| 2026-05-01 09:51 | -4.71480 | 111.32133 | 33816 ft | 512 kts | 317° |
| 2026-05-01 09:52 | -4.68885 | 111.29699 | 34031 ft | 511 kts | 317° |
| 2026-05-01 09:52 | -4.66291 | 111.27266 | 34214 ft | 510 kts | 317° |
| 2026-05-01 09:52 | -4.63702 | 111.24837 | 34438 ft | 510 kts | 317° |
| 2026-05-01 09:52 | -4.61274 | 111.22243 | 34664 ft | 509 kts | 310° |
| 2026-05-01 09:53 | -4.59039 | 111.19501 | 34891 ft | 508 kts | 309° |
| 2026-05-01 09:53 | -4.56845 | 111.16714 | 35097 ft | 508 kts | 308° |
| 2026-05-01 09:53 | -4.54682 | 111.13913 | 35284 ft | 509 kts | 308° |
| 2026-05-01 09:53 | -4.52531 | 111.11105 | 35630 ft | 505 kts | 308° |
| 2026-05-01 09:54 | -4.50402 | 111.08320 | 35951 ft | 503 kts | 308° |
| 2026-05-01 09:54 | -4.48273 | 111.05539 | 36156 ft | 503 kts | 308° |
| 2026-05-01 09:54 | -4.46141 | 111.02761 | 36359 ft | 503 kts | 308° |
| 2026-05-01 09:54 | -4.44037 | 111.00026 | 36571 ft | 503 kts | 308° |
| 2026-05-01 09:55 | -4.41899 | 110.97251 | 36793 ft | 503 kts | 309° |
| 2026-05-01 09:55 | -4.39763 | 110.94479 | 37021 ft | 502 kts | 309° |
| 2026-05-01 09:55 | -4.37624 | 110.91706 | 37219 ft | 502 kts | 309° |
| 2026-05-01 09:55 | -4.35492 | 110.88941 | 37458 ft | 502 kts | 309° |
| 2026-05-01 09:56 | -4.33360 | 110.86177 | 37666 ft | 502 kts | 309° |
| 2026-05-01 09:56 | -4.31225 | 110.83408 | 37892 ft | 501 kts | 309° |
| 2026-05-01 09:56 | -4.29095 | 110.80646 | 38120 ft | 501 kts | 309° |
| 2026-05-01 09:56 | -4.26969 | 110.77890 | 38345 ft | 500 kts | 309° |
| 2026-05-01 09:57 | -4.24843 | 110.75134 | 38547 ft | 500 kts | 309° |
| 2026-05-01 09:57 | -4.22716 | 110.72376 | 38677 ft | 500 kts | 309° |
| 2026-05-01 09:57 | -4.20589 | 110.69620 | 38844 ft | 500 kts | 309° |
| 2026-05-01 09:57 | -4.18465 | 110.66866 | 39029 ft | 499 kts | 309° |
| 2026-05-01 09:58 | -4.16342 | 110.64115 | 39205 ft | 499 kts | 309° |
| 2026-05-01 09:58 | -4.14222 | 110.61368 | 39370 ft | 498 kts | 309° |
| 2026-05-01 09:58 | -4.12101 | 110.58620 | 39535 ft | 498 kts | 309° |
| 2026-05-01 09:58 | -4.09986 | 110.55881 | 39684 ft | 497 kts | 309° |
| 2026-05-01 09:59 | -4.07870 | 110.53140 | 39806 ft | 498 kts | 309° |
| 2026-05-01 09:59 | -4.05754 | 110.50399 | 39846 ft | 497 kts | 309° |
| 2026-05-01 09:59 | -4.01527 | 110.44924 | 39843 ft | 496 kts | 309° |
| 2026-05-01 10:00 | -3.97304 | 110.39458 | 39845 ft | 496 kts | 309° |
| 2026-05-01 10:00 | -3.92983 | 110.34081 | 39843 ft | 495 kts | 311° |
| 2026-05-01 10:01 | -3.88448 | 110.28886 | 39831 ft | 496 kts | 313° |
| 2026-05-01 10:01 | -3.83928 | 110.23724 | 39827 ft | 496 kts | 312° |
| 2026-05-01 10:02 | -3.79416 | 110.18504 | 39832 ft | 496 kts | 312° |
| 2026-05-01 10:02 | -3.74917 | 110.13264 | 39834 ft | 496 kts | 311° |
| 2026-05-01 10:03 | -3.70423 | 110.08025 | 39843 ft | 496 kts | 311° |
| 2026-05-01 10:03 | -3.65931 | 110.02791 | 39851 ft | 496 kts | 311° |
| 2026-05-01 10:04 | -3.61435 | 109.97556 | 39851 ft | 496 kts | 311° |
| 2026-05-01 10:04 | -3.56941 | 109.92323 | 39830 ft | 496 kts | 312° |
| 2026-05-01 10:05 | -3.52439 | 109.87084 | 39829 ft | 497 kts | 312° |
| 2026-05-01 10:05 | -3.47929 | 109.81835 | 39830 ft | 497 kts | 312° |
| 2026-05-01 10:06 | -3.43424 | 109.76593 | 39831 ft | 497 kts | 312° |
| 2026-05-01 10:06 | -3.39685 | 109.72242 | 39830 ft | 496 kts | 312° |
| 2026-05-01 10:07 | -3.35178 | 109.66999 | 39829 ft | 496 kts | 312° |
| 2026-05-01 10:07 | -3.29947 | 109.60916 | 39845 ft | 496 kts | 312° |
| 2026-05-01 10:08 | -3.23924 | 109.53912 | 39827 ft | 496 kts | 312° |
| 2026-05-01 10:09 | -3.19452 | 109.48713 | 39831 ft | 496 kts | 312° |
| 2026-05-01 10:09 | -3.14948 | 109.43476 | 39834 ft | 496 kts | 312° |
| 2026-05-01 10:10 | -3.10453 | 109.38252 | 39848 ft | 495 kts | 312° |
| 2026-05-01 10:10 | -3.03710 | 109.30415 | 39848 ft | 495 kts | 312° |
| 2026-05-01 10:11 | -2.99214 | 109.25192 | 39833 ft | 495 kts | 312° |
| 2026-05-01 10:11 | -2.94716 | 109.19966 | 39833 ft | 495 kts | 312° |
| 2026-05-01 10:12 | -2.90220 | 109.14744 | 39834 ft | 495 kts | 312° |
| 2026-05-01 10:13 | -2.83465 | 109.06925 | 39850 ft | 495 kts | 312° |
| 2026-05-01 10:13 | -2.78955 | 109.01709 | 39834 ft | 495 kts | 312° |
| 2026-05-01 10:14 | -2.72194 | 108.93889 | 39836 ft | 495 kts | 312° |
| 2026-05-01 10:14 | -2.67684 | 108.88675 | 39835 ft | 495 kts | 312° |
| 2026-05-01 10:15 | -2.63205 | 108.83496 | 39835 ft | 495 kts | 312° |
| 2026-05-01 10:15 | -2.58668 | 108.78251 | 39852 ft | 495 kts | 312° |
| 2026-05-01 10:16 | -2.54191 | 108.73077 | 39839 ft | 495 kts | 312° |
| 2026-05-01 10:17 | -2.47426 | 108.65260 | 39838 ft | 496 kts | 312° |
| 2026-05-01 10:17 | -2.40665 | 108.57417 | 39839 ft | 496 kts | 311° |
| 2026-05-01 10:18 | -2.33908 | 108.49575 | 39843 ft | 496 kts | 312° |
| 2026-05-01 10:19 | -2.29404 | 108.44352 | 39842 ft | 496 kts | 312° |
| 2026-05-01 10:19 | -2.24901 | 108.39131 | 39847 ft | 495 kts | 311° |
| 2026-05-01 10:20 | -2.18168 | 108.31326 | 39844 ft | 494 kts | 311° |
| 2026-05-01 10:20 | -2.13683 | 108.26127 | 39844 ft | 493 kts | 312° |
| 2026-05-01 10:21 | -2.06974 | 108.18352 | 39846 ft | 492 kts | 312° |
| 2026-05-01 10:22 | -2.00265 | 108.10584 | 39848 ft | 492 kts | 312° |
| 2026-05-01 10:23 | -1.93563 | 108.02803 | 39847 ft | 492 kts | 312° |
| 2026-05-01 10:23 | -1.86885 | 107.95056 | 39846 ft | 492 kts | 312° |
| 2026-05-01 10:24 | -1.77936 | 107.84683 | 39846 ft | 493 kts | 311° |
| 2026-05-01 10:25 | -1.68962 | 107.74281 | 39842 ft | 494 kts | 311° |
| 2026-05-01 10:26 | -1.64473 | 107.69078 | 39847 ft | 495 kts | 312° |
| 2026-05-01 10:27 | -1.55472 | 107.58648 | 39849 ft | 495 kts | 312° |
| 2026-05-01 10:28 | -1.48725 | 107.50829 | 39847 ft | 495 kts | 312° |
| 2026-05-01 10:28 | -1.41975 | 107.43010 | 39848 ft | 495 kts | 311° |
| 2026-05-01 10:29 | -1.35223 | 107.35197 | 39848 ft | 495 kts | 312° |
| 2026-05-01 10:30 | -1.26096 | 107.24923 | 39848 ft | 494 kts | 313° |
| 2026-05-01 10:31 | -1.16963 | 107.14642 | 39848 ft | 494 kts | 313° |
| 2026-05-01 10:32 | -1.10130 | 107.06934 | 39847 ft | 494 kts | 313° |
| 2026-05-01 10:33 | -1.01053 | 106.96700 | 39848 ft | 493 kts | 312° |
| 2026-05-01 10:34 | -0.94231 | 106.89008 | 39847 ft | 493 kts | 312° |
| 2026-05-01 10:34 | -0.89678 | 106.83875 | 39847 ft | 493 kts | 312° |
| 2026-05-01 10:35 | -0.82858 | 106.76186 | 39848 ft | 493 kts | 312° |
| 2026-05-01 10:35 | -0.78309 | 106.71058 | 39848 ft | 493 kts | 312° |
| 2026-05-01 10:36 | -0.71473 | 106.63352 | 39846 ft | 495 kts | 312° |
| 2026-05-01 10:37 | -0.66934 | 106.58236 | 39851 ft | 495 kts | 312° |
| 2026-05-01 10:37 | -0.59868 | 106.50716 | 39851 ft | 495 kts | 318° |
| 2026-05-01 10:38 | -0.54773 | 106.46104 | 39850 ft | 494 kts | 319° |
| 2026-05-01 10:38 | -0.49621 | 106.41546 | 39804 ft | 495 kts | 319° |
| 2026-05-01 10:39 | -0.47044 | 106.39269 | 39604 ft | 495 kts | 319° |
| 2026-05-01 10:39 | -0.44465 | 106.36988 | 39426 ft | 495 kts | 319° |
| 2026-05-01 10:39 | -0.41892 | 106.34707 | 39242 ft | 496 kts | 319° |
| 2026-05-01 10:39 | -0.39309 | 106.32415 | 39056 ft | 497 kts | 319° |
| 2026-05-01 10:40 | -0.36726 | 106.30120 | 38869 ft | 498 kts | 319° |
| 2026-05-01 10:40 | -0.34135 | 106.27817 | 38693 ft | 499 kts | 320° |
| 2026-05-01 10:40 | -0.31544 | 106.25514 | 38518 ft | 500 kts | 320° |
| 2026-05-01 10:40 | -0.28938 | 106.23198 | 38306 ft | 501 kts | 320° |
| 2026-05-01 10:41 | -0.26332 | 106.20884 | 38087 ft | 502 kts | 320° |
| 2026-05-01 10:41 | -0.23727 | 106.18569 | 37876 ft | 502 kts | 320° |
| 2026-05-01 10:41 | -0.18499 | 106.13925 | 37476 ft | 503 kts | 320° |
| 2026-05-01 10:42 | -0.15885 | 106.11603 | 37249 ft | 504 kts | 320° |
| 2026-05-01 10:42 | -0.13262 | 106.09272 | 37060 ft | 504 kts | 320° |
| 2026-05-01 10:42 | -0.10675 | 106.06974 | 36872 ft | 504 kts | 320° |
| 2026-05-01 10:42 | -0.08057 | 106.04648 | 36703 ft | 505 kts | 320° |
| 2026-05-01 10:43 | -0.05399 | 106.02287 | 36521 ft | 505 kts | 320° |
| 2026-05-01 10:43 | -0.02806 | 105.99984 | 36361 ft | 505 kts | 320° |
| 2026-05-01 10:43 | -0.00182 | 105.97652 | 36186 ft | 506 kts | 320° |
| 2026-05-01 10:43 | 0.02458 | 105.95307 | 36012 ft | 507 kts | 319° |
| 2026-05-01 10:44 | 0.05093 | 105.92966 | 35840 ft | 507 kts | 319° |
| 2026-05-01 10:44 | 0.07721 | 105.90631 | 35685 ft | 506 kts | 319° |
| 2026-05-01 10:44 | 0.10352 | 105.88293 | 35511 ft | 506 kts | 319° |
| 2026-05-01 10:44 | 0.12979 | 105.85959 | 35359 ft | 506 kts | 319° |
| 2026-05-01 10:45 | 0.15612 | 105.83620 | 35183 ft | 506 kts | 319° |
| 2026-05-01 10:45 | 0.18241 | 105.81285 | 35029 ft | 506 kts | 319° |
| 2026-05-01 10:45 | 0.20875 | 105.78944 | 34864 ft | 506 kts | 319° |
| 2026-05-01 10:45 | 0.23507 | 105.76606 | 34712 ft | 506 kts | 319° |
| 2026-05-01 10:46 | 0.26134 | 105.74272 | 34553 ft | 506 kts | 319° |
| 2026-05-01 10:46 | 0.28768 | 105.71932 | 34405 ft | 507 kts | 319° |
| 2026-05-01 10:46 | 0.31400 | 105.69593 | 34243 ft | 507 kts | 319° |
| 2026-05-01 10:46 | 0.34034 | 105.67253 | 34088 ft | 507 kts | 319° |
| 2026-05-01 10:47 | 0.36673 | 105.64909 | 33928 ft | 507 kts | 319° |
| 2026-05-01 10:47 | 0.39307 | 105.62568 | 33759 ft | 507 kts | 319° |
| 2026-05-01 10:47 | 0.41944 | 105.60226 | 33554 ft | 509 kts | 319° |
| 2026-05-01 10:47 | 0.44592 | 105.57872 | 33350 ft | 510 kts | 319° |
| 2026-05-01 10:48 | 0.47244 | 105.55515 | 33147 ft | 511 kts | 319° |
| 2026-05-01 10:48 | 0.49902 | 105.53153 | 32950 ft | 511 kts | 319° |
| 2026-05-01 10:48 | 0.52556 | 105.50795 | 32745 ft | 511 kts | 319° |
| 2026-05-01 10:48 | 0.55219 | 105.48429 | 32559 ft | 512 kts | 319° |
| 2026-05-01 10:49 | 0.57879 | 105.46065 | 32367 ft | 512 kts | 319° |
| 2026-05-01 10:49 | 0.60505 | 105.43732 | 32170 ft | 513 kts | 319° |
| 2026-05-01 10:49 | 0.63143 | 105.41328 | 31973 ft | 514 kts | 315° |
| 2026-05-01 10:49 | 0.65578 | 105.38725 | 31554 ft | 510 kts | 313° |
| 2026-05-01 10:50 | 0.67970 | 105.36099 | 30624 ft | 513 kts | 313° |
| 2026-05-01 10:50 | 0.70352 | 105.33435 | 29709 ft | 516 kts | 313° |
| 2026-05-01 10:50 | 0.72729 | 105.30748 | 28759 ft | 516 kts | 313° |
| 2026-05-01 10:50 | 0.75071 | 105.28090 | 27583 ft | 505 kts | 313° |
| 2026-05-01 10:51 | 0.77380 | 105.25470 | 26100 ft | 501 kts | 313° |
| 2026-05-01 10:51 | 0.79683 | 105.22860 | 24729 ft | 498 kts | 313° |
| 2026-05-01 10:51 | 0.81959 | 105.20284 | 23459 ft | 492 kts | 313° |
| 2026-05-01 10:51 | 0.84218 | 105.17731 | 22042 ft | 486 kts | 313° |
| 2026-05-01 10:52 | 0.86433 | 105.15229 | 20815 ft | 476 kts | 313° |
| 2026-05-01 10:52 | 0.88600 | 105.12781 | 19659 ft | 465 kts | 313° |
| 2026-05-01 10:52 | 0.90726 | 105.10381 | 18477 ft | 457 kts | 313° |
| 2026-05-01 10:52 | 0.92813 | 105.08026 | 17200 ft | 448 kts | 313° |
| 2026-05-01 10:53 | 0.94827 | 105.05752 | 16227 ft | 435 kts | 313° |
| 2026-05-01 10:53 | 0.96811 | 105.03513 | 15706 ft | 427 kts | 313° |
| 2026-05-01 10:53 | 0.98763 | 105.01310 | 15130 ft | 421 kts | 313° |
| 2026-05-01 10:53 | 1.00696 | 104.99128 | 14555 ft | 416 kts | 313° |
| 2026-05-01 10:54 | 1.02605 | 104.96976 | 13990 ft | 412 kts | 313° |
| 2026-05-01 10:54 | 1.04493 | 104.94845 | 13388 ft | 407 kts | 313° |
| 2026-05-01 10:54 | 1.06360 | 104.92738 | 12809 ft | 402 kts | 313° |
| 2026-05-01 10:54 | 1.08197 | 104.90664 | 12224 ft | 396 kts | 313° |
| 2026-05-01 10:55 | 1.10008 | 104.88620 | 11694 ft | 390 kts | 312° |
| 2026-05-01 10:55 | 1.11798 | 104.86600 | 11146 ft | 385 kts | 312° |
| 2026-05-01 10:55 | 1.13552 | 104.84619 | 10730 ft | 376 kts | 312° |
| 2026-05-01 10:55 | 1.15231 | 104.82681 | 10567 ft | 361 kts | 308° |
| 2026-05-01 10:56 | 1.16454 | 104.80569 | 10452 ft | 345 kts | 291° |
| 2026-05-01 10:56 | 1.16973 | 104.78294 | 10328 ft | 329 kts | 276° |
| 2026-05-01 10:56 | 1.17111 | 104.76056 | 10200 ft | 316 kts | 270° |
| 2026-05-01 10:56 | 1.17083 | 104.73907 | 10067 ft | 303 kts | 267° |
| 2026-05-01 10:57 | 1.16974 | 104.71827 | 9780 ft | 301 kts | 265° |
| 2026-05-01 10:57 | 1.16834 | 104.69729 | 9425 ft | 303 kts | 265° |
| 2026-05-01 10:57 | 1.16697 | 104.67661 | 9096 ft | 302 kts | 265° |
| 2026-05-01 10:57 | 1.16572 | 104.65579 | 8773 ft | 300 kts | 266° |
| 2026-05-01 10:58 | 1.16461 | 104.63503 | 8453 ft | 298 kts | 266° |
| 2026-05-01 10:58 | 1.16363 | 104.61438 | 8138 ft | 297 kts | 266° |
| 2026-05-01 10:58 | 1.16271 | 104.59378 | 7820 ft | 295 kts | 266° |
| 2026-05-01 10:58 | 1.16184 | 104.57333 | 7499 ft | 294 kts | 266° |
| 2026-05-01 10:59 | 1.16097 | 104.55297 | 7184 ft | 292 kts | 266° |
| 2026-05-01 10:59 | 1.16012 | 104.53276 | 6870 ft | 291 kts | 267° |
| 2026-05-01 10:59 | 1.15926 | 104.51262 | 6562 ft | 289 kts | 267° |
| 2026-05-01 10:59 | 1.15840 | 104.49261 | 6247 ft | 288 kts | 266° |
| 2026-05-01 11:00 | 1.15754 | 104.47272 | 5924 ft | 286 kts | 266° |
| 2026-05-01 11:00 | 1.15668 | 104.45291 | 5613 ft | 285 kts | 267° |
| 2026-05-01 11:00 | 1.15582 | 104.43319 | 5304 ft | 284 kts | 267° |
| 2026-05-01 11:00 | 1.15497 | 104.41356 | 5053 ft | 282 kts | 267° |
| 2026-05-01 11:01 | 1.15411 | 104.39396 | 4928 ft | 283 kts | 266° |
| 2026-05-01 11:01 | 1.15325 | 104.37440 | 4807 ft | 282 kts | 267° |
| 2026-05-01 11:01 | 1.15241 | 104.35486 | 4688 ft | 281 kts | 267° |
| 2026-05-01 11:01 | 1.15185 | 104.34194 | 4612 ft | 280 kts | 267° |
| 2026-05-01 11:02 | 1.15100 | 104.32249 | 4481 ft | 280 kts | 267° |
| 2026-05-01 11:02 | 1.15016 | 104.30310 | 4355 ft | 279 kts | 267° |
| 2026-05-01 11:02 | 1.14932 | 104.28374 | 4235 ft | 279 kts | 267° |
| 2026-05-01 11:02 | 1.14848 | 104.26443 | 4107 ft | 278 kts | 267° |
| 2026-05-01 11:03 | 1.14738 | 104.23886 | 4025 ft | 277 kts | 267° |
| 2026-05-01 11:03 | 1.14682 | 104.22592 | 4018 ft | 272 kts | 267° |
| 2026-05-01 11:03 | 1.14600 | 104.20765 | 4011 ft | 255 kts | 266° |
| 2026-05-01 11:03 | 1.14496 | 104.19057 | 4009 ft | 238 kts | 265° |
| 2026-05-01 11:04 | 1.14378 | 104.17457 | 3939 ft | 225 kts | 265° |
| 2026-05-01 11:04 | 1.14260 | 104.15960 | 3838 ft | 212 kts | 265° |
| 2026-05-01 11:04 | 1.14145 | 104.14520 | 3725 ft | 199 kts | 265° |
| 2026-05-01 11:04 | 1.14043 | 104.13206 | 3598 ft | 187 kts | 265° |
| 2026-05-01 11:05 | 1.13948 | 104.11955 | 3468 ft | 175 kts | 265° |
| 2026-05-01 11:05 | 1.13857 | 104.10729 | 3377 ft | 175 kts | 265° |
| 2026-05-01 11:05 | 1.13769 | 104.09524 | 3350 ft | 177 kts | 265° |
| 2026-05-01 11:05 | 1.13680 | 104.08300 | 3329 ft | 177 kts | 265° |
| 2026-05-01 11:06 | 1.13591 | 104.07070 | 3303 ft | 178 kts | 265° |
| 2026-05-01 11:06 | 1.13503 | 104.05838 | 3270 ft | 178 kts | 265° |
| 2026-05-01 11:06 | 1.13414 | 104.04603 | 3235 ft | 178 kts | 265° |
| 2026-05-01 11:07 | 1.13237 | 104.02145 | 3132 ft | 177 kts | 265° |
| 2026-05-01 11:07 | 1.13149 | 104.00929 | 3080 ft | 176 kts | 265° |
| 2026-05-01 11:07 | 1.13244 | 103.99716 | 3018 ft | 177 kts | 287° |
| 2026-05-01 11:07 | 1.13922 | 103.98717 | 3021 ft | 176 kts | 319° |
| 2026-05-01 11:08 | 1.14901 | 103.97992 | 3016 ft | 175 kts | 328° |
| 2026-05-01 11:08 | 1.15931 | 103.97339 | 3020 ft | 176 kts | 329° |
| 2026-05-01 11:08 | 1.18009 | 103.96059 | 3017 ft | 175 kts | 329° |
| 2026-05-01 11:09 | 1.19043 | 103.95421 | 3021 ft | 175 kts | 329° |
| 2026-05-01 11:09 | 1.20070 | 103.94783 | 2828 ft | 172 kts | 329° |
| 2026-05-01 11:09 | 1.21085 | 103.94155 | 2642 ft | 171 kts | 329° |
| 2026-05-01 11:10 | 1.23123 | 103.93089 | 2506 ft | 163 kts | 351° |
| 2026-05-01 11:10 | 1.24255 | 103.93090 | 2460 ft | 163 kts | 15° |
| 2026-05-01 11:10 | 1.25269 | 103.93519 | 2301 ft | 159 kts | 31° |
| 2026-05-01 11:10 | 1.26251 | 103.94068 | 1850 ft | 164 kts | 29° |
| 2026-05-01 11:11 | 1.27272 | 103.94532 | 1601 ft | 157 kts | 25° |
| 2026-05-01 11:11 | 1.28250 | 103.94953 | 1384 ft | 148 kts | 25° |
| 2026-05-01 11:11 | 1.29177 | 103.95322 | 1212 ft | 140 kts | 23° |
| 2026-05-01 11:11 | 1.30075 | 103.95688 | 1087 ft | 140 kts | 26° |
| 2026-05-01 11:12 | 1.30964 | 103.96078 | 890 ft | 138 kts | 25° |
| 2026-05-01 11:12 | 1.31852 | 103.96460 | 707 ft | 139 kts | 24° |
| 2026-05-01 11:12 | 1.32735 | 103.96843 | 525 ft | 138 kts | 22° |
| 2026-05-01 11:12 | 1.33607 | 103.97214 | 320 ft | 137 kts | 21° |
| 2026-05-01 11:13 | 1.34492 | 103.97583 | 146 ft | 138 kts | 20° |
| 2026-05-01 11:13 | 1.35376 | 103.97952 | 40 ft | 134 kts | 20° |
| 2026-05-01 11:13 | 1.36153 | 103.98276 | 34 ft | 106 kts | 22° |
| 2026-05-01 11:13 | 1.36700 | 103.98507 | 36 ft | 46 kts | 23° |
| 2026-05-01 11:14 | 1.36923 | 103.98608 | 35 ft | 25 kts | 31° |
| 2026-05-01 11:14 | 1.37056 | 103.98718 | 33 ft | 21 kts | 50° |
| 2026-05-01 11:14 | 1.37093 | 103.98817 | 32 ft | 16 kts | 113° |
| 2026-05-01 11:14 | 1.37004 | 103.98829 | 32 ft | 14 kts | 203° |
| 2026-05-01 11:15 | 1.36906 | 103.98787 | 32 ft | 16 kts | 203° |
| 2026-05-01 11:15 | 1.36824 | 103.98829 | 32 ft | 15 kts | 114° |
| 2026-05-01 11:15 | 1.36781 | 103.98933 | 31 ft | 17 kts | 112° |
| 2026-05-01 11:15 | 1.36731 | 103.99053 | 31 ft | 20 kts | 112° |
| 2026-05-01 11:16 | 1.36673 | 103.99187 | 31 ft | 22 kts | 114° |
| 2026-05-01 11:16 | 1.36615 | 103.99321 | 31 ft | 20 kts | 112° |
| 2026-05-01 11:16 | 1.36559 | 103.99453 | 31 ft | 22 kts | 113° |
| 2026-05-01 11:16 | 1.36507 | 103.99575 | 31 ft | 14 kts | 113° |
| 2026-05-01 11:17 | 1.36440 | 103.99606 | 31 ft | 11 kts | 197° |
| 2026-05-01 11:17 | 1.36372 | 103.99558 | 31 ft | 12 kts | 227° |
| 2026-05-01 11:17 | 1.36356 | 103.99504 | 31 ft | 4 kts | 297° |
| 2026-05-01 11:17 | 1.36376 | 103.99488 | 31 ft | 5 kts | 323° |
| 2026-05-01 11:18 | 1.36406 | 103.99465 | 31 ft | 3 kts | 323° |
| 2026-05-01 11:18 | 1.36410 | 103.99463 | 31 ft | 0 kts | 323° |